Time;durP1;ratioP1;P1;durP2;ratioP2;P2;SDS_P1;SDS_P2;PMS_P1;PMS_P2;Temp;Humidity;BMP_temperature;BMP_pressure;BME280_temperature;BME280_humidity;BME280_pressure;Samples;Min_cycle;Max_cycle;Signal;HPM_P1;HPM_P2
2024/01/06 00:00:49;;;;;;;1.27;0.70;;;;;;;6.66;85.03;99458.19;4964580;28;20211;-82
2024/01/06 00:03:17;;;;;;;1.60;0.67;;;;;;;6.67;84.46;99453.72;4964355;28;20258;-79
2024/01/06 00:05:44;;;;;;;1.20;0.60;;;;;;;6.63;84.47;99456.59;4967065;28;20212;-81
2024/01/06 00:08:10;;;;;;;1.77;0.70;;;;;;;6.63;84.85;99453.09;4960261;28;20239;-78
2024/01/06 00:10:37;;;;;;;2.53;0.70;;;;;;;6.65;84.92;99469.72;4965269;28;20205;-81
2024/01/06 00:13:03;;;;;;;3.97;1.37;;;;;;;6.65;85.29;99469.72;4960996;28;20210;-79
2024/01/06 00:15:30;;;;;;;2.07;0.90;;;;;;;6.63;86.20;99471.59;4964694;28;20215;-78
2024/01/06 00:17:56;;;;;;;1.13;0.70;;;;;;;6.63;85.46;99471.59;4956180;28;20232;-77
2024/01/06 00:20:24;;;;;;;2.83;0.97;;;;;;;6.61;86.62;99473.53;4961706;28;20200;-78
2024/01/06 00:22:50;;;;;;;1.93;0.60;;;;;;;6.61;86.94;99470.88;4965974;28;20714;-79
2024/01/06 00:25:17;;;;;;;2.73;0.70;;;;;;;6.60;86.85;99477.13;4962797;28;20735;-78
2024/01/06 00:27:43;;;;;;;1.37;0.73;;;;;;;6.60;86.42;99475.31;4957229;28;20228;-78
2024/01/06 00:30:10;;;;;;;3.47;1.00;;;;;;;6.59;86.77;99483.34;4966982;28;20688;-78
2024/01/06 00:32:37;;;;;;;0.77;0.70;;;;;;;6.58;87.57;99479.00;4964580;28;20205;-78
2024/01/06 00:35:04;;;;;;;1.20;0.80;;;;;;;6.57;87.14;99472.03;4965828;28;20213;-79
2024/01/06 00:37:32;;;;;;;3.47;1.33;;;;;;;6.57;87.97;99475.53;4972276;28;20228;-78
2024/01/06 00:39:58;;;;;;;2.47;1.00;;;;;;;6.56;87.67;99475.63;4969329;28;20665;-78
2024/01/06 00:42:25;;;;;;;2.33;1.10;;;;;;;6.57;87.26;99487.91;4956899;28;20777;-79
2024/01/06 00:44:51;;;;;;;2.63;1.20;;;;;;;6.67;89.00;99482.84;4970810;28;20219;-78
2024/01/06 00:47:18;;;;;;;4.43;0.90;;;;;;;6.68;89.14;99484.53;4968285;28;20234;-78
2024/01/06 00:49:45;;;;;;;3.17;1.33;;;;;;;6.67;89.62;99490.78;4970397;28;20208;-78
2024/01/06 00:52:11;;;;;;;1.50;0.97;;;;;;;6.62;90.37;99499.03;4964917;28;20729;-79
2024/01/06 00:54:39;;;;;;;3.40;1.10;;;;;;;6.56;92.05;99496.78;4971276;28;20587;-79
2024/01/06 00:57:06;;;;;;;3.87;1.00;;;;;;;6.55;92.49;99490.66;4971607;28;20239;-79
2024/01/06 00:59:32;;;;;;;1.70;1.10;;;;;;;6.50;92.94;99498.03;4968746;28;20220;-77
2024/01/06 01:01:58;;;;;;;0.90;0.90;;;;;;;6.45;93.97;99494.81;4972649;28;20229;-78
2024/01/06 01:04:25;;;;;;;1.83;1.03;;;;;;;6.41;94.12;99501.28;4965949;28;20228;-78
2024/01/06 01:06:52;;;;;;;2.10;1.27;;;;;;;6.40;95.29;99499.56;4973093;28;20726;-77
2024/01/06 01:09:18;;;;;;;2.57;1.00;;;;;;;6.38;95.89;99501.47;4970532;28;20212;-78
2024/01/06 01:11:46;;;;;;;3.17;1.20;;;;;;;6.34;95.82;99507.88;4970755;28;20204;-80
2024/01/06 01:14:12;;;;;;;2.70;1.10;;;;;;;6.33;96.49;99511.47;4967190;28;20207;-78
2024/01/06 01:16:39;;;;;;;2.20;1.20;;;;;;;6.31;96.63;99512.53;4969120;28;20279;-78
2024/01/06 01:19:05;;;;;;;1.97;0.90;;;;;;;6.26;97.09;99529.56;4968782;28;20212;-77
2024/01/06 01:21:32;;;;;;;1.50;0.90;;;;;;;6.24;97.41;99528.78;4970469;28;20236;-77
2024/01/06 01:23:58;;;;;;;1.70;1.00;;;;;;;6.21;97.24;99534.28;4960729;28;20579;-77
2024/01/06 01:26:25;;;;;;;2.57;1.60;;;;;;;6.20;97.72;99526.44;4966166;28;20209;-77
2024/01/06 01:28:53;;;;;;;2.20;1.00;;;;;;;6.19;98.24;99533.53;4966878;28;20291;-77
2024/01/06 01:31:19;;;;;;;5.20;1.33;;;;;;;6.17;98.62;99540.69;4965373;28;20224;-77
2024/01/06 01:33:46;;;;;;;2.33;1.20;;;;;;;6.14;98.59;99534.75;4971054;28;20209;-78
2024/01/06 01:36:13;;;;;;;2.23;1.10;;;;;;;6.14;99.32;99546.16;4968206;28;20556;-77
2024/01/06 01:38:39;;;;;;;3.33;1.83;;;;;;;6.14;99.22;99543.53;4970155;28;20220;-77
2024/01/06 01:41:06;;;;;;;1.53;1.10;;;;;;;6.14;99.45;99542.66;4970650;28;20231;-78
2024/01/06 01:43:32;;;;;;;4.60;1.10;;;;;;;6.15;100.00;99541.72;4969349;28;21469;-80
2024/01/06 01:46:01;;;;;;;2.47;1.10;;;;;;;6.15;99.89;99541.72;4971378;28;20712;-79
2024/01/06 01:48:28;;;;;;;2.23;1.30;;;;;;;6.14;99.87;99542.66;4973268;28;20322;-78
2024/01/06 01:50:55;;;;;;;2.90;1.00;;;;;;;6.14;100.00;99537.38;4975221;28;20661;-79
2024/01/06 01:53:23;;;;;;;1.90;1.00;;;;;;;6.15;100.00;99544.38;4968791;28;20235;-79
2024/01/06 01:55:50;;;;;;;1.67;1.10;;;;;;;6.13;100.00;99539.19;4972107;28;20212;-79
2024/01/06 01:58:17;;;;;;;2.57;1.10;;;;;;;6.11;100.00;99541.06;4971670;28;20244;-79
2024/01/06 02:00:44;;;;;;;1.43;1.00;;;;;;;6.09;100.00;99545.59;4969968;28;20208;-80
2024/01/06 02:03:13;;;;;;;2.03;1.10;;;;;;;6.10;100.00;99557.88;4973702;28;20228;-79
2024/01/06 02:05:40;;;;;;;2.67;0.90;;;;;;;6.10;100.00;99551.72;4976235;28;20658;-79
2024/01/06 02:08:07;;;;;;;2.10;1.00;;;;;;;6.08;100.00;99557.16;4975510;28;20228;-79
2024/01/06 02:10:34;;;;;;;2.83;0.93;;;;;;;6.08;100.00;99559.78;4964700;28;20255;-79
2024/01/06 02:13:08;;;;;;;2.93;1.33;;;;;;;6.08;100.00;99549.22;4965261;28;20204;-79
2024/01/06 02:15:35;;;;;;;3.17;1.13;;;;;;;6.07;100.00;99560.72;4969460;28;20218;-79
2024/01/06 02:18:01;;;;;;;1.40;1.07;;;;;;;6.07;100.00;99565.16;4965524;28;20748;-79
2024/01/06 02:20:31;;;;;;;1.40;1.10;;;;;;;6.07;99.61;99562.53;4972813;28;20662;-79
2024/01/06 02:23:00;;;;;;;1.80;0.97;;;;;;;6.07;99.40;99568.66;4968927;28;20235;-78
2024/01/06 02:25:27;;;;;;;2.67;1.00;;;;;;;6.10;99.00;99572.88;4973657;28;20212;-79
2024/01/06 02:27:53;;;;;;;1.93;1.20;;;;;;;6.10;98.40;99571.09;4969963;28;20220;-79
2024/01/06 02:30:20;;;;;;;2.60;1.00;;;;;;;6.14;97.68;99574.41;4970868;28;20212;-79
2024/01/06 02:32:46;;;;;;;3.27;1.70;;;;;;;6.11;96.92;99575.44;4970273;28;20208;-81
2024/01/06 02:35:13;;;;;;;4.40;1.73;;;;;;;6.12;96.95;99571.84;4963848;28;20205;-80
2024/01/06 02:37:39;;;;;;;3.97;1.50;;;;;;;6.10;96.90;99580.81;4968272;28;20235;-81
2024/01/06 02:40:09;;;;;;;2.80;1.50;;;;;;;6.10;97.16;99578.16;4970547;28;20211;-81
2024/01/06 02:42:35;;;;;;;2.73;1.53;;;;;;;6.14;95.64;99587.59;4975121;28;20595;-81
2024/01/06 02:45:02;;;;;;;2.50;1.30;;;;;;;6.13;96.12;99583.28;4971280;28;20605;-79
2024/01/06 02:47:28;;;;;;;3.30;1.53;;;;;;;6.13;96.64;99585.91;4964957;28;20228;-81
2024/01/06 02:49:54;;;;;;;2.47;1.17;;;;;;;6.12;96.00;99589.50;4964982;28;20210;-81
2024/01/06 02:52:22;;;;;;;2.03;1.20;;;;;;;6.11;95.50;99596.56;4966328;28;20200;-80
2024/01/06 02:54:48;;;;;;;3.73;1.60;;;;;;;6.12;96.25;99592.16;4969297;28;20208;-81
2024/01/06 02:57:16;;;;;;;2.50;1.33;;;;;;;6.12;96.97;99602.72;4968271;28;20236;-83
2024/01/06 02:59:43;;;;;;;2.07;1.20;;;;;;;6.11;96.35;99595.72;4971358;28;20226;-82
2024/01/06 03:02:09;;;;;;;2.70;1.40;;;;;;;6.13;96.41;99594.69;4972484;28;20601;-82
2024/01/06 03:04:36;;;;;;;2.47;1.30;;;;;;;6.10;97.02;99600.16;4969035;28;20211;-81
2024/01/06 03:07:02;;;;;;;1.77;1.20;;;;;;;6.10;97.07;99601.97;4970520;28;20235;-81
2024/01/06 03:09:29;;;;;;;2.33;1.40;;;;;;;6.12;97.32;99593.00;4965497;28;20208;-81
2024/01/06 03:11:55;;;;;;;3.20;1.30;;;;;;;6.11;96.58;99601.00;4968073;28;20208;-81
2024/01/06 03:14:23;;;;;;;3.03;1.47;;;;;;;6.10;97.29;99604.59;4976005;28;20265;-82
2024/01/06 03:16:50;;;;;;;1.70;1.10;;;;;;;6.10;97.01;99610.75;4965103;28;20220;-81
2024/01/06 03:19:16;;;;;;;1.73;1.23;;;;;;;6.10;97.25;99609.88;4969794;28;20215;-81
2024/01/06 03:21:43;;;;;;;2.10;1.27;;;;;;;6.09;97.08;99611.69;4967996;28;20920;-81
2024/01/06 03:24:09;;;;;;;1.80;1.20;;;;;;;6.08;97.56;99615.28;4964650;28;20224;-81
2024/01/06 03:26:36;;;;;;;3.43;1.57;;;;;;;6.06;97.20;99617.19;4966100;28;20359;-81
2024/01/06 03:29:03;;;;;;;2.17;1.83;;;;;;;6.05;97.96;99618.13;4971856;28;20199;-80
2024/01/06 03:31:31;;;;;;;2.30;1.40;;;;;;;6.05;97.76;99615.47;4970455;28;20645;-81
2024/01/06 03:33:58;;;;;;;4.73;1.33;;;;;;;6.04;98.24;99619.06;4972435;28;20571;-82
2024/01/06 03:36:25;;;;;;;2.53;1.60;;;;;;;6.03;98.11;99617.38;4970957;28;20209;-81
2024/01/06 03:38:52;;;;;;;4.50;1.60;;;;;;;6.03;98.96;99620.00;4967180;28;20636;-81
2024/01/06 03:41:18;;;;;;;2.63;1.50;;;;;;;6.02;99.07;99618.31;4978612;28;20656;-81
2024/01/06 03:43:44;;;;;;;2.53;1.87;;;;;;;6.03;99.54;99619.16;4976588;28;20600;-81
2024/01/06 03:46:11;;;;;;;2.93;1.50;;;;;;;6.02;99.71;99628.03;4966534;28;20265;-82
2024/01/06 03:48:39;;;;;;;2.13;1.77;;;;;;;6.02;99.93;99620.94;4967302;28;20254;-81
2024/01/06 03:51:05;;;;;;;2.17;1.57;;;;;;;6.01;99.93;99627.16;4966871;28;20748;-82
2024/01/06 03:53:32;;;;;;;4.23;2.27;;;;;;;6.01;100.00;99621.03;4970756;28;20562;-80
2024/01/06 03:55:58;;;;;;;2.97;1.60;;;;;;;6.01;99.99;99631.59;4969128;28;20763;-80
2024/01/06 03:58:25;;;;;;;3.10;1.80;;;;;;;5.99;100.00;99630.84;4965317;28;20260;-80
2024/01/06 04:00:51;;;;;;;3.67;1.60;;;;;;;5.97;100.00;99640.66;4967774;28;20208;-81
2024/01/06 04:03:18;;;;;;;5.00;3.23;;;;;;;5.95;100.00;99643.38;4970229;28;20223;-81
2024/01/06 04:05:45;;;;;;;10.47;7.20;;;;;;;5.91;100.00;99647.19;4965696;28;20205;-81
2024/01/06 04:08:12;;;;;;;10.23;6.93;;;;;;;5.87;100.00;99646.47;4967090;28;20243;-81
2024/01/06 04:10:39;;;;;;;10.03;7.47;;;;;;;5.84;100.00;99651.94;4972028;28;20691;-81
2024/01/06 04:13:06;;;;;;;10.93;7.27;;;;;;;5.83;100.00;99652.03;4966298;28;20206;-81
2024/01/06 04:15:32;;;;;;;11.93;7.77;;;;;;;5.80;100.00;99661.00;4977164;28;20208;-81
2024/01/06 04:18:03;;;;;;;11.00;8.20;;;;;;;5.77;100.00;99661.16;4966870;28;20319;-81
2024/01/06 04:20:29;;;;;;;11.77;7.73;;;;;;;5.75;100.00;99662.19;4970889;28;20200;-81
2024/01/06 04:22:57;;;;;;;10.67;8.17;;;;;;;5.73;100.00;99658.81;4969352;28;20228;-81
2024/01/06 04:25:23;;;;;;;11.03;7.97;;;;;;;5.71;100.00;99664.19;4975402;28;20208;-81
2024/01/06 04:27:50;;;;;;;9.07;7.00;;;;;;;5.70;100.00;99672.19;4973915;28;20256;-81
2024/01/06 04:30:17;;;;;;;12.03;7.67;;;;;;;5.69;100.00;99678.44;4971106;28;20303;-81
2024/01/06 04:32:44;;;;;;;9.90;6.37;;;;;;;5.68;100.00;99676.72;4974416;28;20220;-81
2024/01/06 04:35:11;;;;;;;6.07;4.33;;;;;;;5.67;100.00;99680.31;4976098;28;20197;-80
2024/01/06 04:37:38;;;;;;;12.13;7.13;;;;;;;5.65;100.00;99684.81;4977341;28;20228;-81
2024/01/06 04:40:07;;;;;;;11.10;6.97;;;;;;;5.62;100.00;99691.13;4966160;28;20208;-80
2024/01/06 04:42:34;;;;;;;12.83;7.90;;;;;;;5.62;100.00;99687.63;4972348;28;20215;-81
2024/01/06 04:45:00;;;;;;;12.13;8.70;;;;;;;5.59;100.00;99692.16;4971061;28;20243;-81
2024/01/06 04:47:27;;;;;;;12.83;9.00;;;;;;;5.57;100.00;99701.09;4972997;28;20223;-81
2024/01/06 04:49:54;;;;;;;14.33;9.43;;;;;;;5.55;100.00;99693.25;4978929;28;20212;-81
2024/01/06 04:52:20;;;;;;;15.90;9.40;;;;;;;5.53;100.00;99700.44;4975106;28;20208;-81
2024/01/06 04:54:47;;;;;;;16.00;10.07;;;;;;;5.51;100.00;99697.03;4977278;28;20201;-81
2024/01/06 04:57:15;;;;;;;14.37;9.43;;;;;;;5.47;100.00;99700.78;4974146;28;20256;-80
2024/01/06 04:59:42;;;;;;;13.53;9.67;;;;;;;5.44;100.00;99695.69;4974884;28;20226;-81
2024/01/06 05:02:08;;;;;;;17.73;9.63;;;;;;;5.41;100.00;99692.38;4977976;28;20212;-80
2024/01/06 05:04:35;;;;;;;15.23;10.00;;;;;;;5.40;100.00;99699.44;4979163;28;20630;-80
2024/01/06 05:07:02;;;;;;;16.40;10.07;;;;;;;5.38;100.00;99700.44;4978155;28;20729;-81
2024/01/06 05:09:28;;;;;;;18.20;10.47;;;;;;;5.36;100.00;99705.00;4974261;28;20209;-81
2024/01/06 05:11:55;;;;;;;13.77;9.53;;;;;;;5.35;100.00;99705.94;4973339;28;20208;-81
2024/01/06 05:14:23;;;;;;;15.30;9.60;;;;;;;5.33;100.00;99713.94;4967584;28;20237;-81
2024/01/06 05:16:49;;;;;;;16.83;10.00;;;;;;;5.34;100.00;99720.94;4970551;28;20286;-81
2024/01/06 05:19:19;;;;;;;12.70;9.13;;;;;;;5.34;100.00;99720.94;4978117;28;20238;-80
2024/01/06 05:21:46;;;;;;;12.77;8.53;;;;;;;5.35;100.00;99722.63;4976715;28;20226;-81
2024/01/06 05:24:13;;;;;;;12.23;7.70;;;;;;;5.33;100.00;99718.38;4969756;28;20719;-81
2024/01/06 05:26:39;;;;;;;11.27;7.83;;;;;;;5.32;100.00;99714.88;4972433;28;20691;-81
2024/01/06 05:29:06;;;;;;;10.53;7.07;;;;;;;5.33;100.00;99716.59;4969762;28;20340;-81
2024/01/06 05:31:34;;;;;;;10.50;7.27;;;;;;;5.32;100.00;99721.94;4974530;28;20204;-81
2024/01/06 05:34:00;;;;;;;10.10;7.30;;;;;;;5.33;100.00;99719.22;4974967;28;20207;-81
2024/01/06 05:36:27;;;;;;;11.60;8.47;;;;;;;5.32;100.00;99720.16;4968973;28;20204;-81
2024/01/06 05:38:53;;;;;;;10.93;7.90;;;;;;;5.29;100.00;99722.97;4975468;28;20243;-80
2024/01/06 05:41:20;;;;;;;12.33;8.27;;;;;;;5.28;100.00;99725.69;4968621;28;20201;-81
2024/01/06 05:43:47;;;;;;;14.60;8.23;;;;;;;5.23;100.00;99728.56;4973687;28;20243;-81
2024/01/06 05:46:21;;;;;;;13.47;9.17;;;;;;;5.19;100.00;99725.28;4973874;28;20216;-80
2024/01/06 05:48:49;;;;;;;12.93;8.43;;;;;;;5.16;100.00;99728.09;4971631;28;20223;-81
2024/01/06 05:51:15;;;;;;;15.13;10.53;;;;;;;5.14;100.00;99735.25;4965813;28;20205;-81
2024/01/06 05:53:42;;;;;;;18.27;11.53;;;;;;;5.12;100.00;99737.09;4972510;28;20196;-81
2024/01/06 05:56:09;;;;;;;15.17;10.17;;;;;;;5.10;100.00;99736.34;4971267;28;20658;-80
2024/01/06 05:58:36;;;;;;;16.20;10.93;;;;;;;5.08;100.00;99745.28;4973704;28;20236;-81
2024/01/06 06:01:02;;;;;;;19.43;10.83;;;;;;;5.10;100.00;99746.03;4970579;28;20204;-81
2024/01/06 06:03:29;;;;;;;15.70;9.90;;;;;;;5.11;100.00;99748.59;4975580;28;20228;-81
2024/01/06 06:05:56;;;;;;;16.10;10.83;;;;;;;5.11;100.00;99758.31;4973267;28;20204;-80
2024/01/06 06:08:23;;;;;;;20.77;10.63;;;;;;;5.12;100.00;99760.88;4968592;28;20231;-80
2024/01/06 06:11:01;;;;;;;17.07;10.97;;;;;;;5.10;100.00;99775.06;4976021;28;20209;-81
2024/01/06 06:13:27;;;;;;;18.17;10.87;;;;;;;5.08;100.00;99774.31;4971098;28;20197;-81
2024/01/06 06:15:54;;;;;;;18.77;11.03;;;;;;;5.05;100.00;99783.22;4970890;28;20204;-82
2024/01/06 06:18:21;;;;;;;17.07;10.77;;;;;;;5.02;100.00;99790.47;4975016;28;20812;-82
2024/01/06 06:20:47;;;;;;;17.53;11.83;;;;;;;5.00;100.00;99795.00;4974187;28;20211;-81
2024/01/06 06:23:15;;;;;;;19.47;11.83;;;;;;;4.97;100.00;99789.88;4968086;28;20235;-80
2024/01/06 06:25:42;;;;;;;19.67;12.10;;;;;;;4.93;100.00;99790.97;4969608;28;20212;-80
2024/01/06 06:28:09;;;;;;;17.97;11.53;;;;;;;4.88;100.00;99799.97;4971425;28;20236;-80
2024/01/06 06:30:35;;;;;;;18.27;11.87;;;;;;;4.86;100.00;99804.47;4968801;28;20211;-80
2024/01/06 06:33:01;;;;;;;16.93;10.50;;;;;;;4.85;100.00;99807.19;4968769;28;20209;-80
2024/01/06 06:35:28;;;;;;;23.07;13.33;;;;;;;4.84;100.00;99824.81;4973017;28;20624;-81
2024/01/06 06:37:55;;;;;;;20.67;13.10;;;;;;;4.84;100.00;99822.19;4974867;28;20225;-81
2024/01/06 06:40:22;;;;;;;22.33;13.90;;;;;;;4.84;100.00;99816.03;4975788;28;20205;-81
2024/01/06 06:42:49;;;;;;;21.20;12.83;;;;;;;4.82;100.00;99821.44;4976919;28;20231;-82
2024/01/06 06:45:16;;;;;;;24.40;13.70;;;;;;;4.83;100.00;99825.78;4969070;28;20289;-82
2024/01/06 06:47:42;;;;;;;23.10;12.50;;;;;;;4.83;100.00;99833.69;4967211;28;20228;-81
2024/01/06 06:50:09;;;;;;;18.90;11.80;;;;;;;4.81;100.00;99834.69;4969941;28;20244;-80
2024/01/06 06:52:36;;;;;;;24.10;13.73;;;;;;;4.79;100.00;99833.94;4968616;28;20608;-80
2024/01/06 06:55:02;;;;;;;23.23;12.93;;;;;;;4.77;100.00;99836.63;4971486;28;20255;-80
2024/01/06 06:57:30;;;;;;;21.00;13.40;;;;;;;4.76;100.00;99845.47;4970471;28;20264;-79
2024/01/06 06:59:57;;;;;;;22.00;12.90;;;;;;;4.72;100.00;99843.94;4972407;28;20216;-81
2024/01/06 07:02:24;;;;;;;21.27;13.50;;;;;;;4.71;100.00;99846.66;4972292;28;20208;-80
2024/01/06 07:04:50;;;;;;;21.20;12.43;;;;;;;4.69;100.00;99851.16;4969352;28;20224;-80
2024/01/06 07:07:17;;;;;;;21.03;12.87;;;;;;;4.66;100.00;99854.78;4970288;28;20236;-80
2024/01/06 07:09:44;;;;;;;21.30;13.97;;;;;;;4.63;100.00;99852.34;4966305;28;20223;-80
2024/01/06 07:12:10;;;;;;;21.93;12.50;;;;;;;4.61;100.00;99859.47;4961940;28;20674;-80
2024/01/06 07:14:38;;;;;;;21.00;13.27;;;;;;;4.58;100.00;99869.31;4968472;28;20204;-80
2024/01/06 07:17:04;;;;;;;21.40;12.93;;;;;;;4.54;100.00;99865.97;4966085;28;20605;-80
2024/01/06 07:19:32;;;;;;;21.17;12.97;;;;;;;4.53;100.00;99872.19;4970743;28;20279;-80
2024/01/06 07:21:59;;;;;;;22.37;13.53;;;;;;;4.51;100.00;99872.25;4971783;28;20204;-81
2024/01/06 07:24:26;;;;;;;22.70;13.03;;;;;;;4.50;100.00;99869.69;4966881;28;20238;-81
2024/01/06 07:26:53;;;;;;;22.80;12.53;;;;;;;4.47;100.00;99883.06;4963010;28;20220;-81
2024/01/06 07:29:19;;;;;;;23.03;13.87;;;;;;;4.43;100.00;99879.72;4969443;28;20672;-81
2024/01/06 07:31:48;;;;;;;23.53;13.30;;;;;;;4.43;100.00;99894.69;4968716;28;20200;-81
2024/01/06 07:34:15;;;;;;;21.83;13.13;;;;;;;4.43;100.00;99900.81;4968157;28;20204;-80
2024/01/06 07:36:42;;;;;;;25.40;13.87;;;;;;;4.40;100.00;99900.09;4968253;28;20683;-80
2024/01/06 07:39:09;;;;;;;24.57;14.07;;;;;;;4.37;100.00;99909.00;4967084;28;20204;-81
2024/01/06 07:41:35;;;;;;;27.50;14.27;;;;;;;4.37;100.00;99914.28;4968940;28;20255;-81
2024/01/06 07:44:02;;;;;;;25.57;14.33;;;;;;;4.36;100.00;99917.84;4966270;28;20232;-81
2024/01/06 07:46:29;;;;;;;25.70;13.80;;;;;;;4.35;100.00;99918.78;4970347;28;20212;-81
2024/01/06 07:48:57;;;;;;;22.13;13.50;;;;;;;4.35;100.00;99917.94;4974572;28;20244;-81
2024/01/06 07:51:24;;;;;;;26.70;14.17;;;;;;;4.34;100.00;99926.75;4970878;28;20216;-80
2024/01/06 07:53:51;;;;;;;25.70;13.87;;;;;;;4.33;100.00;99931.19;4973129;28;20296;-80
2024/01/06 07:56:18;;;;;;;22.40;14.00;;;;;;;4.32;100.00;99928.63;4971204;28;20216;-80
2024/01/06 07:58:44;;;;;;;24.13;14.27;;;;;;;4.31;100.00;99929.53;4968899;28;20242;-80
2024/01/06 08:01:11;;;;;;;26.57;14.70;;;;;;;4.31;100.00;99945.34;4967407;28;20196;-80
2024/01/06 08:03:37;;;;;;;26.27;15.10;;;;;;;4.28;100.00;99945.53;4969155;28;20205;-80
2024/01/06 08:06:06;;;;;;;28.00;14.97;;;;;;;4.27;100.00;99946.47;4973479;28;20212;-80
2024/01/06 08:08:32;;;;;;;22.53;13.17;;;;;;;4.25;100.00;99950.94;4965313;28;20224;-79
2024/01/06 08:10:58;;;;;;;27.00;14.10;;;;;;;4.25;100.00;99950.94;4967995;28;20216;-79
2024/01/06 08:13:25;;;;;;;22.23;13.13;;;;;;;4.26;100.00;99957.94;4957498;28;20216;-80
2024/01/06 08:15:51;;;;;;;23.50;13.37;;;;;;;4.25;100.00;99964.13;4970475;28;20263;-80
2024/01/06 08:18:19;;;;;;;25.10;13.00;;;;;;;4.27;100.00;99970.19;4969600;28;20304;-80
2024/01/06 08:20:45;;;;;;;22.37;13.37;;;;;;;4.25;100.00;99977.31;4970227;28;20255;-79
2024/01/06 08:23:14;;;;;;;22.73;12.90;;;;;;;4.24;100.00;99988.78;4967287;28;20209;-80
2024/01/06 08:25:40;;;;;;;22.83;13.57;;;;;;;4.21;100.00;99997.69;4967763;28;20644;-80
2024/01/06 08:28:07;;;;;;;20.97;12.43;;;;;;;4.21;100.00;99988.91;4969400;28;20685;-80
2024/01/06 08:30:33;;;;;;;25.07;13.97;;;;;;;4.21;100.00;99989.78;4968544;28;20216;-80
2024/01/06 08:33:00;;;;;;;23.47;13.03;;;;;;;4.23;100.00;99994.97;4972480;28;20215;-80
2024/01/06 08:35:26;;;;;;;24.20;12.87;;;;;;;4.18;100.00;99998.66;4972605;28;20255;-81
2024/01/06 08:37:52;;;;;;;24.17;13.23;;;;;;;4.13;100.00;100005.06;4972234;28;20224;-82
2024/01/06 08:40:20;;;;;;;24.90;13.27;;;;;;;4.10;100.00;100008.75;4970983;28;20215;-81
2024/01/06 08:42:47;;;;;;;23.90;13.60;;;;;;;4.09;100.00;100014.94;4971161;28;20232;-81
2024/01/06 08:45:13;;;;;;;25.63;13.57;;;;;;;4.08;100.00;100018.50;4969985;28;20600;-82
2024/01/06 08:47:40;;;;;;;25.47;13.27;;;;;;;4.07;100.00;100022.06;4965428;28;20806;-81
2024/01/06 08:50:08;;;;;;;24.07;13.20;;;;;;;4.06;100.00;100028.25;4965740;28;20216;-81
2024/01/06 08:52:34;;;;;;;25.80;13.27;;;;;;;4.06;100.00;100028.25;4967940;28;20212;-82
2024/01/06 08:55:01;;;;;;;24.20;13.27;;;;;;;4.05;100.00;100033.59;4966458;28;20208;-81
2024/01/06 08:57:29;;;;;;;28.03;14.37;;;;;;;4.07;100.00;100034.38;4973621;28;20224;-81
2024/01/06 08:59:55;;;;;;;23.67;12.77;;;;;;;4.06;100.00;100040.56;4974827;28;20311;-81
2024/01/06 09:02:22;;;;;;;24.37;13.43;;;;;;;4.07;100.00;100042.28;4972394;28;20208;-81
2024/01/06 09:04:48;;;;;;;23.73;12.90;;;;;;;4.06;100.00;100045.84;4973292;28;20228;-80
2024/01/06 09:07:17;;;;;;;26.80;14.17;;;;;;;4.05;100.00;100052.88;4970463;28;20232;-80
2024/01/06 09:09:43;;;;;;;24.17;13.87;;;;;;;4.07;100.00;100055.44;4973462;28;20236;-80
2024/01/06 09:12:10;;;;;;;26.23;13.70;;;;;;;4.07;100.00;100061.59;4972633;28;20676;-80
2024/01/06 09:14:37;;;;;;;28.87;14.70;;;;;;;4.03;100.00;100062.63;4972819;28;20197;-80
2024/01/06 09:17:04;;;;;;;25.70;13.73;;;;;;;4.04;100.00;100061.72;4973425;28;20553;-80
2024/01/06 09:19:31;;;;;;;27.90;13.97;;;;;;;4.06;100.00;100064.28;4973298;28;20205;-81
2024/01/06 09:21:57;;;;;;;25.73;13.90;;;;;;;4.03;100.00;100067.06;4971184;28;20666;-81
2024/01/06 09:24:24;;;;;;;22.83;13.03;;;;;;;4.00;100.00;100083.00;4973435;28;20236;-81
2024/01/06 09:26:51;;;;;;;26.03;14.17;;;;;;;4.03;100.00;100088.13;4972457;28;20662;-80
2024/01/06 09:29:18;;;;;;;25.77;13.90;;;;;;;3.98;100.00;100083.06;4978167;28;20231;-80
2024/01/06 09:31:45;;;;;;;29.37;15.03;;;;;;;3.95;100.00;100091.09;4976366;28;20297;-81
2024/01/06 09:34:12;;;;;;;26.40;13.70;;;;;;;3.95;100.00;100088.47;4973345;28;20201;-81
2024/01/06 09:36:39;;;;;;;29.90;14.70;;;;;;;3.96;100.00;100089.31;4969416;28;20204;-80
2024/01/06 09:39:06;;;;;;;31.27;16.13;;;;;;;3.95;100.00;100090.25;4972868;28;20220;-80
2024/01/06 09:41:33;;;;;;;31.53;16.90;;;;;;;3.96;100.00;100103.34;4970915;28;20208;-81
2024/01/06 09:43:59;;;;;;;32.73;15.57;;;;;;;3.98;100.00;100098.88;4968714;28;20213;-80
2024/01/06 09:46:27;;;;;;;29.73;14.93;;;;;;;3.96;100.00;100098.09;4963600;28;20685;-80
2024/01/06 09:48:55;;;;;;;33.03;15.90;;;;;;;3.94;100.00;100094.66;4972041;28;20290;-80
2024/01/06 09:51:23;;;;;;;33.87;14.87;;;;;;;3.94;100.00;100101.72;4972266;28;20215;-81
2024/01/06 09:53:52;;;;;;;34.97;16.50;;;;;;;3.94;100.00;100107.00;4969743;28;20212;-81
2024/01/06 09:56:19;;;;;;;34.93;16.83;;;;;;;3.96;100.00;100100.72;4964684;28;20686;-81
2024/01/06 09:58:45;;;;;;;35.23;17.30;;;;;;;3.96;100.00;100111.25;4971408;28;20239;-82
2024/01/06 10:01:14;;;;;;;34.50;16.97;;;;;;;3.94;100.00;100110.47;4969320;28;20572;-81
2024/01/06 10:03:40;;;;;;;31.77;16.17;;;;;;;3.97;100.00;100112.09;4971621;28;20205;-81
2024/01/06 10:06:09;;;;;;;34.47;16.67;;;;;;;3.97;100.00;100118.25;4968497;28;20221;-82
2024/01/06 10:08:36;;;;;;;35.60;18.60;;;;;;;3.97;100.00;100126.13;4966449;28;20228;-82
2024/01/06 10:11:02;;;;;;;37.63;17.70;;;;;;;3.95;100.00;100124.50;4969377;28;20211;-81
2024/01/06 10:13:29;;;;;;;36.03;17.27;;;;;;;3.95;100.00;100125.34;4971616;28;20212;-81
2024/01/06 10:15:56;;;;;;;41.83;17.90;;;;;;;3.95;100.00;100119.22;4969630;28;20715;-79
2024/01/06 10:18:22;;;;;;;39.97;18.27;;;;;;;3.98;100.00;100124.34;4975091;28;20228;-79
2024/01/06 10:20:49;;;;;;;39.10;18.10;;;;;;;3.96;100.00;100129.69;4969990;28;20219;-79
2024/01/06 10:23:16;;;;;;;38.23;17.50;;;;;;;3.96;100.00;100128.84;4974333;28;20676;-79
2024/01/06 10:25:43;;;;;;;36.23;17.37;;;;;;;3.99;100.00;100126.06;4972395;28;20251;-80
2024/01/06 10:28:13;;;;;;;38.63;18.70;;;;;;;3.95;100.00;100127.97;4974314;28;20278;-79
2024/01/06 10:30:40;;;;;;;37.57;17.53;;;;;;;3.96;100.00;100132.34;4971915;28;20274;-79
2024/01/06 10:33:09;;;;;;;34.83;17.90;;;;;;;3.96;100.00;100132.34;4960847;28;20640;-80
2024/01/06 10:35:36;;;;;;;36.90;16.87;;;;;;;3.97;100.00;100138.47;4969711;28;20204;-79
2024/01/06 10:38:03;;;;;;;40.07;18.20;;;;;;;3.94;100.00;100142.06;4972619;28;20611;-80
2024/01/06 10:40:31;;;;;;;33.30;16.80;;;;;;;3.94;100.00;100136.81;4965721;28;20806;-80
2024/01/06 10:42:58;;;;;;;37.27;16.23;;;;;;;3.93;100.00;100148.31;4963528;28;20212;-80
2024/01/06 10:45:25;;;;;;;33.83;16.93;;;;;;;3.93;100.00;100147.44;4968149;28;20741;-78
2024/01/06 10:47:52;;;;;;;38.90;17.67;;;;;;;3.90;100.00;100151.06;4970140;28;20421;-79
2024/01/06 10:50:19;;;;;;;35.13;16.57;;;;;;;3.90;100.00;100151.06;4968603;28;20223;-79
2024/01/06 10:52:48;;;;;;;35.60;16.93;;;;;;;3.93;100.00;100156.22;4965171;28;20205;-80
2024/01/06 10:55:17;;;;;;;37.53;16.73;;;;;;;3.94;100.00;100157.06;4963897;28;20212;-81
2024/01/06 10:57:46;;;;;;;36.57;16.90;;;;;;;3.93;100.00;100169.38;4964649;28;20233;-80
2024/01/06 11:00:13;;;;;;;33.67;16.20;;;;;;;3.90;100.00;100166.88;4974097;28;20215;-81
2024/01/06 11:02:41;;;;;;;30.00;16.00;;;;;;;3.89;100.00;100165.16;4966376;28;20216;-80
2024/01/06 11:05:10;;;;;;;29.37;15.60;;;;;;;3.87;100.00;100158.25;4970047;28;20228;-82
2024/01/06 11:07:38;;;;;;;36.30;18.07;;;;;;;3.87;100.00;100158.25;4970349;28;20620;-82
2024/01/06 11:10:10;;;;;;;31.97;16.67;;;;;;;3.87;100.00;100156.47;4961221;28;20201;-82
2024/01/06 11:12:36;;;;;;;35.37;17.03;;;;;;;3.86;100.00;100154.75;4965805;28;20216;-82
2024/01/06 11:15:06;;;;;;;35.83;15.57;;;;;;;3.87;100.00;100155.59;4964747;28;20207;-83
2024/01/06 11:17:53;;;;;;;31.77;16.17;;;;;;;3.87;100.00;100153.81;4969468;28;20236;-82
2024/01/06 11:20:21;;;;;;;31.13;15.67;;;;;;;3.87;100.00;100158.25;4964242;28;20690;-83
2024/01/06 11:22:48;;;;;;;30.97;16.20;;;;;;;3.86;100.00;100154.75;4970376;28;20306;-82